createdAt,value
2019-03-31T00:01:13.581Z,7.45
2019-03-31T00:03:40.222Z,10.23
2019-03-31T00:06:06.998Z,12.15
2019-03-31T00:08:33.760Z,7.95
2019-03-31T00:11:00.762Z,8.20
2019-03-31T00:13:27.597Z,9.15
2019-03-31T00:15:54.359Z,9.05
2019-03-31T00:18:21.118Z,11.63
2019-03-31T00:20:47.664Z,8.28
2019-03-31T00:23:14.447Z,9.23
2019-03-31T00:25:41.200Z,18.70
2019-03-31T00:28:07.858Z,10.18
2019-03-31T00:30:34.624Z,10.38
2019-03-31T00:33:01.374Z,7.97
2019-03-31T00:35:27.935Z,11.33
2019-03-31T00:37:54.611Z,8.55
2019-03-31T00:40:21.271Z,8.00
2019-03-31T00:42:47.931Z,8.10
2019-03-31T00:45:14.681Z,10.20
2019-03-31T00:47:41.247Z,10.18
2019-03-31T00:50:07.909Z,11.85
2019-03-31T00:52:34.561Z,10.98
2019-03-31T00:55:01.328Z,12.50
2019-03-31T00:57:27.996Z,9.10
2019-03-31T00:59:54.752Z,11.45
2019-03-31T01:02:22.339Z,10.58
2019-03-31T01:04:49.083Z,10.35
2019-03-31T01:07:15.650Z,9.80
2019-03-31T01:09:42.317Z,10.32
2019-03-31T01:12:09.083Z,7.95
2019-03-31T01:14:35.742Z,10.28
2019-03-31T01:17:02.611Z,10.00
2019-03-31T01:19:29.455Z,7.45
2019-03-31T01:21:56.016Z,11.03
2019-03-31T01:24:22.782Z,8.18
2019-03-31T01:26:49.458Z,8.28
2019-03-31T01:29:16.216Z,7.85
2019-03-31T01:31:50.191Z,7.30
2019-03-31T01:34:12.592Z,7.70
2019-03-31T01:36:39.152Z,8.30
2019-03-31T01:39:05.925Z,11.50
2019-03-31T01:41:32.582Z,9.65
2019-03-31T01:43:59.435Z,15.85
2019-03-31T01:46:25.995Z,6.87
2019-03-31T01:48:52.667Z,7.83
2019-03-31T01:51:20.552Z,9.78
2019-03-31T01:53:47.205Z,7.37
2019-03-31T01:56:13.870Z,11.15
2019-03-31T01:58:40.530Z,7.78
2019-03-31T02:01:07.302Z,10.08
2019-03-31T02:03:33.949Z,6.83
2019-03-31T02:06:00.712Z,8.85
2019-03-31T02:08:27.375Z,8.08
2019-03-31T02:10:54.146Z,7.05
2019-03-31T02:13:20.804Z,8.68
2019-03-31T02:15:47.462Z,6.67
2019-03-31T02:18:14.230Z,9.03
2019-03-31T02:20:40.982Z,8.03
2019-03-31T02:23:07.742Z,6.45
2019-03-31T02:25:34.307Z,7.45
2019-03-31T02:28:00.968Z,7.65
2019-03-31T02:30:27.632Z,7.35
2019-03-31T02:32:54.187Z,9.90
2019-03-31T02:35:20.841Z,10.70
2019-03-31T02:37:47.391Z,9.85
2019-03-31T02:40:13.877Z,7.05
2019-03-31T02:42:40.433Z,5.62
2019-03-31T02:45:07.113Z,6.75
2019-03-31T02:47:33.835Z,5.92
2019-03-31T02:50:00.816Z,6.40
2019-03-31T02:52:27.674Z,8.28
2019-03-31T02:54:54.438Z,6.80
2019-03-31T02:57:21.190Z,6.47
2019-03-31T02:59:47.746Z,9.10
2019-03-31T03:02:14.622Z,6.12
2019-03-31T03:04:41.383Z,8.38
2019-03-31T03:07:08.042Z,8.60
2019-03-31T03:09:34.600Z,6.97
2019-03-31T03:12:01.263Z,7.40
2019-03-31T03:14:28.014Z,8.58
2019-03-31T03:16:54.592Z,7.33
2019-03-31T03:19:21.345Z,7.20
2019-03-31T03:21:48.002Z,9.70
2019-03-31T03:24:14.759Z,7.53
2019-03-31T03:26:41.623Z,6.15
2019-03-31T03:29:08.288Z,8.90
2019-03-31T03:31:34.972Z,13.50
2019-03-31T03:34:01.719Z,7.47
2019-03-31T03:36:28.684Z,5.95
2019-03-31T03:38:55.350Z,6.55
2019-03-31T03:41:22.207Z,9.45
2019-03-31T03:43:55.966Z,6.65
2019-03-31T03:46:17.366Z,6.22
2019-03-31T03:48:44.224Z,8.00
2019-03-31T03:51:10.994Z,10.48
2019-03-31T03:53:37.654Z,8.35
2019-03-31T03:56:04.431Z,6.47
2019-03-31T03:58:31.090Z,6.83
2019-03-31T04:00:57.729Z,6.10
2019-03-31T04:03:30.425Z,6.35
2019-03-31T04:05:54.023Z,5.80
2019-03-31T04:08:20.676Z,9.98
2019-03-31T04:10:47.460Z,7.65
2019-03-31T04:13:14.212Z,6.45
2019-03-31T04:15:41.074Z,6.05
2019-03-31T04:18:07.829Z,7.65
2019-03-31T04:20:39.045Z,8.10
2019-03-31T04:23:02.901Z,7.87
2019-03-31T04:25:29.567Z,7.53
2019-03-31T04:27:56.426Z,7.05
2019-03-31T04:30:23.189Z,7.17
2019-03-31T04:32:49.847Z,5.65
2019-03-31T04:35:16.604Z,9.05
2019-03-31T04:37:43.377Z,6.62
2019-03-31T04:40:10.242Z,7.00
2019-03-31T04:42:36.994Z,7.37
2019-03-31T04:45:03.753Z,7.97
2019-03-31T04:47:30.436Z,8.18
2019-03-31T04:49:57.181Z,7.97
2019-03-31T04:52:24.769Z,6.03
2019-03-31T04:54:51.528Z,10.30
2019-03-31T04:57:18.383Z,11.08
2019-03-31T04:59:45.051Z,5.83
2019-03-31T05:02:11.808Z,8.58
2019-03-31T05:04:38.351Z,6.60
2019-03-31T05:07:05.127Z,7.90
2019-03-31T05:09:31.692Z,7.60
2019-03-31T05:11:58.451Z,8.00
2019-03-31T05:14:25.012Z,7.58
2019-03-31T05:16:51.674Z,9.83
2019-03-31T05:19:18.443Z,7.60
2019-03-31T05:21:45.310Z,6.90
2019-03-31T05:24:11.959Z,6.92
2019-03-31T05:26:38.624Z,5.60
2019-03-31T05:29:05.168Z,7.08
2019-03-31T05:31:31.732Z,6.65
2019-03-31T05:33:58.297Z,7.72
2019-03-31T05:36:24.952Z,6.50
2019-03-31T05:38:51.616Z,13.65
2019-03-31T05:41:18.365Z,7.17
2019-03-31T05:43:45.242Z,10.63
2019-03-31T05:46:11.993Z,6.15
2019-03-31T05:48:38.563Z,9.28
2019-03-31T05:51:05.321Z,8.10
2019-03-31T05:53:31.977Z,6.72
2019-03-31T05:55:58.650Z,7.78
2019-03-31T05:58:25.405Z,6.72
2019-03-31T06:00:52.181Z,6.50
2019-03-31T06:03:18.937Z,9.80
2019-03-31T06:05:45.714Z,8.00
2019-03-31T06:08:12.457Z,8.05
2019-03-31T06:10:39.334Z,8.00
2019-03-31T06:13:05.996Z,7.55
2019-03-31T06:15:32.651Z,8.20
2019-03-31T06:20:31.690Z,10.60
2019-03-31T06:22:58.349Z,8.85
2019-03-31T06:25:25.011Z,7.65
2019-03-31T06:27:51.880Z,10.93
2019-03-31T06:30:18.637Z,10.03
2019-03-31T06:32:45.403Z,10.08
2019-03-31T06:35:12.165Z,15.23
2019-03-31T06:37:38.728Z,8.73
2019-03-31T06:40:05.289Z,7.80
2019-03-31T06:42:31.945Z,8.23
2019-03-31T06:44:58.505Z,12.73
2019-03-31T06:47:25.259Z,7.83
2019-03-31T06:49:52.016Z,7.95
2019-03-31T06:52:18.690Z,7.47
2019-03-31T06:54:45.451Z,8.43
2019-03-31T06:57:12.111Z,8.33
2019-03-31T06:59:38.671Z,9.68
2019-03-31T07:02:05.311Z,9.00
2019-03-31T07:04:32.049Z,8.48
2019-03-31T07:06:58.736Z,8.35
2019-03-31T07:09:25.410Z,9.23
2019-03-31T07:11:52.171Z,10.43
2019-03-31T07:14:18.891Z,10.40
2019-03-31T07:16:45.690Z,11.83
2019-03-31T07:19:12.530Z,12.20
2019-03-31T07:21:39.124Z,11.97
2019-03-31T07:24:05.824Z,10.63
2019-03-31T07:26:32.439Z,10.23
2019-03-31T07:28:58.868Z,9.63
2019-03-31T07:31:25.469Z,11.03
2019-03-31T07:33:52.063Z,8.93
2019-03-31T07:36:18.729Z,8.47
2019-03-31T07:38:45.645Z,8.20
2019-03-31T07:41:13.420Z,8.37
2019-03-31T07:43:40.246Z,9.23
2019-03-31T07:46:06.786Z,9.03
2019-03-31T07:48:33.415Z,7.90
2019-03-31T07:51:01.478Z,7.27
2019-03-31T07:53:28.030Z,9.93
2019-03-31T07:55:54.791Z,7.10
2019-03-31T07:58:21.582Z,10.57
2019-03-31T08:00:48.445Z,9.53
2019-03-31T08:03:15.090Z,8.83
2019-03-31T08:05:41.654Z,9.43
2019-03-31T08:08:08.222Z,8.57
2019-03-31T08:10:34.891Z,9.17
2019-03-31T08:13:01.640Z,8.50
2019-03-31T08:15:28.304Z,8.03
2019-03-31T08:17:54.997Z,8.47
2019-03-31T08:20:21.724Z,8.83
2019-03-31T08:22:48.590Z,7.40
2019-03-31T08:25:15.362Z,7.90
2019-03-31T08:27:42.114Z,7.70
2019-03-31T08:30:08.778Z,7.50
2019-03-31T08:32:35.334Z,7.10
2019-03-31T08:35:01.990Z,6.40
2019-03-31T08:37:28.755Z,6.03
2019-03-31T08:39:55.410Z,6.10
2019-03-31T08:42:22.178Z,5.80
2019-03-31T08:44:48.847Z,6.03
2019-03-31T08:47:15.511Z,5.23
2019-03-31T08:49:42.139Z,5.73
2019-03-31T08:52:08.826Z,5.97
2019-03-31T08:54:35.387Z,5.10
2019-03-31T08:57:02.046Z,5.13
2019-03-31T08:59:28.802Z,5.30
2019-03-31T09:01:55.553Z,5.17
2019-03-31T09:04:22.423Z,5.07
2019-03-31T09:06:49.098Z,5.30
2019-03-31T09:09:15.653Z,5.00
2019-03-31T09:11:42.205Z,5.57
2019-03-31T09:14:08.870Z,5.10
2019-03-31T09:16:35.425Z,4.67
2019-03-31T09:19:02.196Z,4.50
2019-03-31T09:21:28.770Z,6.87
2019-03-31T09:23:55.506Z,5.17
2019-03-31T09:26:22.286Z,7.30
2019-03-31T09:28:49.243Z,4.77
2019-03-31T09:31:15.901Z,4.67
2019-03-31T09:33:42.552Z,4.77
2019-03-31T09:36:16.183Z,4.70
2019-03-31T09:38:37.503Z,4.77
2019-03-31T09:41:04.068Z,5.30
2019-03-31T09:43:30.693Z,6.13
2019-03-31T09:45:57.383Z,5.70
2019-03-31T09:48:24.048Z,6.60
2019-03-31T09:50:50.823Z,5.07
2019-03-31T09:53:17.580Z,5.37
2019-03-31T09:55:44.143Z,7.67
2019-03-31T09:58:10.690Z,5.77
2019-03-31T10:00:37.249Z,4.27
2019-03-31T10:03:03.822Z,4.20
2019-03-31T10:05:30.473Z,5.40
2019-03-31T10:07:57.244Z,4.07
2019-03-31T10:10:23.902Z,6.30
2019-03-31T10:12:50.606Z,4.37
2019-03-31T10:15:17.319Z,5.83
2019-03-31T10:17:43.973Z,4.90
2019-03-31T10:20:10.631Z,5.07
2019-03-31T10:22:37.264Z,5.40
2019-03-31T10:25:03.866Z,5.40
2019-03-31T10:27:30.511Z,5.50
2019-03-31T10:29:57.386Z,5.80
2019-03-31T10:32:24.161Z,6.13
2019-03-31T10:34:50.820Z,5.33
2019-03-31T10:37:17.466Z,5.60
2019-03-31T10:39:43.965Z,4.53
2019-03-31T10:42:10.613Z,5.60
2019-03-31T10:44:37.619Z,5.30
2019-03-31T10:47:04.196Z,6.70
2019-03-31T10:49:30.894Z,7.53
2019-03-31T10:51:57.627Z,7.07
2019-03-31T10:54:24.493Z,7.80
2019-03-31T10:56:51.167Z,6.70
2019-03-31T10:59:18.824Z,6.13
2019-03-31T11:01:45.447Z,5.93
2019-03-31T11:04:12.064Z,6.20
2019-03-31T11:06:38.814Z,6.27
2019-03-31T11:09:05.487Z,6.03
2019-03-31T11:11:32.036Z,4.67
2019-03-31T11:13:58.894Z,5.87
2019-03-31T11:16:25.571Z,4.83
2019-03-31T11:18:52.431Z,6.03
2019-03-31T11:21:18.989Z,4.80
2019-03-31T11:23:45.739Z,6.40
2019-03-31T11:26:12.300Z,11.10
2019-03-31T11:28:39.271Z,6.37
2019-03-31T11:31:06.142Z,5.50
2019-03-31T11:33:32.796Z,6.60
2019-03-31T11:35:59.568Z,7.80
2019-03-31T11:38:26.329Z,5.83
2019-03-31T11:40:52.989Z,5.83
2019-03-31T11:43:19.630Z,5.00
2019-03-31T11:45:46.309Z,4.53
2019-03-31T11:48:12.861Z,4.77
2019-03-31T11:50:39.436Z,5.57
2019-03-31T11:53:06.045Z,7.00
2019-03-31T11:55:32.649Z,7.60
2019-03-31T11:57:59.295Z,5.90
2019-03-31T12:00:25.966Z,6.20
2019-03-31T12:02:52.822Z,6.00
2019-03-31T12:05:20.195Z,9.40
2019-03-31T12:07:47.533Z,4.93
2019-03-31T12:10:14.444Z,5.07
2019-03-31T12:12:42.137Z,4.50
2019-03-31T12:15:08.881Z,6.00
2019-03-31T12:17:36.253Z,5.70
2019-03-31T12:20:02.910Z,7.57
2019-03-31T12:22:29.791Z,5.37
2019-03-31T12:24:56.558Z,5.40
2019-03-31T12:27:23.325Z,5.27
2019-03-31T12:29:49.975Z,4.70
2019-03-31T12:32:16.730Z,5.13
2019-03-31T12:34:43.290Z,4.93
2019-03-31T12:37:09.948Z,4.07
2019-03-31T12:39:36.618Z,5.90
2019-03-31T12:42:03.275Z,5.00
2019-03-31T12:44:30.042Z,3.83
2019-03-31T12:46:56.818Z,4.10
2019-03-31T12:49:23.474Z,4.37
2019-03-31T12:51:50.220Z,4.30
2019-03-31T12:54:16.794Z,3.93
2019-03-31T12:56:43.543Z,3.40
2019-03-31T12:59:10.156Z,4.13
2019-03-31T13:01:36.858Z,6.03
2019-03-31T13:04:03.511Z,9.40
2019-03-31T13:06:30.299Z,12.53
2019-03-31T13:08:58.378Z,4.40
2019-03-31T13:11:25.137Z,3.50
2019-03-31T13:13:51.797Z,3.33
2019-03-31T13:16:18.369Z,2.93
2019-03-31T13:18:45.114Z,3.57
2019-03-31T13:21:11.792Z,4.07
2019-03-31T13:23:38.435Z,3.90
2019-03-31T13:26:05.101Z,4.00
2019-03-31T13:28:31.881Z,3.10
2019-03-31T13:30:58.628Z,5.93
2019-03-31T13:33:25.298Z,4.00
2019-03-31T13:35:53.318Z,3.40
2019-03-31T13:38:20.363Z,3.60
2019-03-31T13:40:50.360Z,4.50
2019-03-31T13:43:15.515Z,3.67
2019-03-31T13:45:42.259Z,3.83
2019-03-31T13:48:08.943Z,3.07
2019-03-31T13:50:35.599Z,2.77
2019-03-31T13:53:02.353Z,3.47
2019-03-31T13:55:29.209Z,3.90
2019-03-31T13:57:58.012Z,4.40
2019-03-31T14:00:26.113Z,4.07
2019-03-31T14:02:52.887Z,3.90
2019-03-31T14:05:19.544Z,4.03
2019-03-31T14:07:46.094Z,3.50
2019-03-31T14:10:12.660Z,3.50
2019-03-31T14:12:39.215Z,4.27
2019-03-31T14:15:18.527Z,3.93
2019-03-31T14:17:34.471Z,3.97
2019-03-31T14:20:01.143Z,8.83
2019-03-31T14:22:27.901Z,4.40
2019-03-31T14:24:54.665Z,5.40
2019-03-31T14:27:21.425Z,4.20
2019-03-31T14:29:47.981Z,6.03
2019-03-31T14:32:14.650Z,3.80
2019-03-31T14:34:41.411Z,5.23
2019-03-31T14:37:08.160Z,4.20
2019-03-31T14:39:34.936Z,4.77
2019-03-31T14:42:01.591Z,4.73
2019-03-31T14:44:28.353Z,4.03
2019-03-31T14:46:55.118Z,4.50
2019-03-31T14:49:21.780Z,4.37
2019-03-31T14:51:48.438Z,4.33
2019-03-31T14:54:15.304Z,5.60
2019-03-31T14:56:41.976Z,6.15
2019-03-31T14:59:08.641Z,4.90
2019-03-31T15:01:35.284Z,3.97
2019-03-31T15:04:02.153Z,5.73
2019-03-31T15:06:28.920Z,4.43
2019-03-31T15:08:55.484Z,4.80
2019-03-31T15:11:22.415Z,4.03
2019-03-31T15:13:49.298Z,4.37
2019-03-31T15:16:16.003Z,4.80
2019-03-31T15:18:42.724Z,4.50
2019-03-31T15:21:09.390Z,5.50
2019-03-31T15:23:36.255Z,5.17
2019-03-31T15:26:02.983Z,8.13
2019-03-31T15:28:29.891Z,4.37
2019-03-31T15:30:56.751Z,4.40
2019-03-31T15:33:23.501Z,3.87
2019-03-31T15:35:50.167Z,3.83
2019-03-31T15:38:16.602Z,4.20
2019-03-31T15:43:29.063Z,4.23
2019-03-31T15:45:55.621Z,3.97
2019-03-31T15:48:22.281Z,5.00
2019-03-31T15:50:49.353Z,5.07
2019-03-31T15:53:16.017Z,4.73
2019-03-31T15:55:43.392Z,4.83
2019-03-31T15:58:09.952Z,5.00
2019-03-31T16:00:36.710Z,4.33
2019-03-31T16:03:03.373Z,5.13
2019-03-31T16:05:30.024Z,4.10
2019-03-31T16:07:56.586Z,5.30
2019-03-31T16:10:24.177Z,5.73
2019-03-31T16:12:50.933Z,5.53
2019-03-31T16:15:17.592Z,4.27
2019-03-31T16:17:45.089Z,4.80
2019-03-31T16:20:11.633Z,4.10
2019-03-31T16:22:38.402Z,5.80
2019-03-31T16:25:05.161Z,4.90
2019-03-31T16:27:31.959Z,6.40
2019-03-31T16:29:58.583Z,4.70
2019-03-31T16:32:25.462Z,4.83
2019-03-31T16:34:52.203Z,6.93
2019-03-31T16:37:18.863Z,6.10
2019-03-31T16:39:45.523Z,10.50
2019-03-31T16:42:12.082Z,4.50
2019-03-31T16:44:38.852Z,5.47
2019-03-31T16:47:05.474Z,6.10
2019-03-31T16:49:32.074Z,6.10
2019-03-31T16:51:58.922Z,6.80
2019-03-31T16:54:25.546Z,7.97
2019-03-31T16:56:52.104Z,6.00
2019-03-31T16:59:18.703Z,5.67
2019-03-31T17:01:45.507Z,5.30
2019-03-31T17:04:12.225Z,11.60
2019-03-31T17:06:38.895Z,4.90
2019-03-31T17:09:05.460Z,6.07
2019-03-31T17:11:32.321Z,6.83
2019-03-31T17:13:58.976Z,6.17
2019-03-31T17:16:26.858Z,9.50
2019-03-31T17:18:53.839Z,7.10
2019-03-31T17:21:20.394Z,7.07
2019-03-31T17:23:47.047Z,7.60
2019-03-31T17:26:13.921Z,8.63
2019-03-31T17:28:40.586Z,8.97
2019-03-31T17:31:07.230Z,10.28
2019-03-31T17:33:33.900Z,10.53
2019-03-31T17:36:00.652Z,13.23
2019-03-31T17:38:27.219Z,9.70
2019-03-31T17:40:53.831Z,8.95
2019-03-31T17:43:20.430Z,10.55
2019-03-31T17:45:47.096Z,9.73
2019-03-31T17:48:13.658Z,9.33
2019-03-31T17:50:40.314Z,7.87
2019-03-31T17:53:07.075Z,7.40
2019-03-31T17:55:33.529Z,8.38
2019-03-31T17:58:00.198Z,8.80
2019-03-31T18:00:27.073Z,7.90
2019-03-31T18:02:53.913Z,9.23
2019-03-31T18:05:20.478Z,6.70
2019-03-31T18:07:47.031Z,9.23
2019-03-31T18:10:20.806Z,9.28
2019-03-31T18:12:42.294Z,13.00
2019-03-31T18:15:09.069Z,9.33
2019-03-31T18:17:35.837Z,9.60
2019-03-31T18:20:02.484Z,9.23
2019-03-31T18:22:29.138Z,12.58
2019-03-31T18:24:55.706Z,8.43
2019-03-31T18:27:22.369Z,11.00
2019-03-31T18:29:49.126Z,10.98
2019-03-31T18:32:15.678Z,8.03
2019-03-31T18:34:42.345Z,13.22
2019-03-31T18:37:08.899Z,8.35
2019-03-31T18:39:35.556Z,10.63
2019-03-31T18:42:02.172Z,10.70
2019-03-31T18:44:28.676Z,7.75
2019-03-31T18:46:55.145Z,8.13
2019-03-31T18:49:21.752Z,11.75
2019-03-31T18:51:48.351Z,8.43
2019-03-31T18:54:15.005Z,9.60
2019-03-31T18:56:41.779Z,13.38
2019-03-31T18:59:08.534Z,9.93
2019-03-31T19:01:35.308Z,8.65
2019-03-31T19:04:02.014Z,7.30
2019-03-31T19:06:28.626Z,8.95
2019-03-31T19:08:55.177Z,7.60
2019-03-31T19:11:21.732Z,12.33
2019-03-31T19:13:55.395Z,13.13
2019-03-31T19:16:16.690Z,10.68
2019-03-31T19:18:43.450Z,8.80
2019-03-31T19:21:10.910Z,13.68
2019-03-31T19:23:38.516Z,11.33
2019-03-31T19:26:05.176Z,14.73
2019-03-31T19:28:33.535Z,12.15
2019-03-31T19:31:00.710Z,10.10
2019-03-31T19:33:27.409Z,14.10
2019-03-31T19:35:53.971Z,15.00
2019-03-31T19:38:20.621Z,17.35
2019-03-31T19:40:47.193Z,16.75
2019-03-31T19:43:13.952Z,12.45
2019-03-31T19:45:40.611Z,13.98
2019-03-31T19:48:07.273Z,12.82
2019-03-31T19:50:33.932Z,11.65
2019-03-31T19:53:00.691Z,12.60
2019-03-31T19:55:27.357Z,14.05
2019-03-31T19:57:54.004Z,12.98
2019-03-31T20:00:20.765Z,23.18
2019-03-31T20:02:47.224Z,16.97
2019-03-31T20:05:13.784Z,17.10
2019-03-31T20:07:40.444Z,17.50
2019-03-31T20:10:07.204Z,17.65
2019-03-31T20:12:33.764Z,14.03
2019-03-31T20:15:00.623Z,13.30
2019-03-31T20:17:27.388Z,14.00
2019-03-31T20:19:54.072Z,14.33
2019-03-31T20:22:20.707Z,13.25
2019-03-31T20:24:47.385Z,14.10
2019-03-31T20:27:14.134Z,17.62
2019-03-31T20:29:40.891Z,19.02
2019-03-31T20:32:07.565Z,18.00
2019-03-31T20:34:34.433Z,15.38
2019-03-31T20:37:01.907Z,20.92
2019-03-31T20:39:28.565Z,15.43
2019-03-31T20:41:55.116Z,17.65
2019-03-31T20:44:21.691Z,16.35
2019-03-31T20:46:48.450Z,20.50
2019-03-31T20:49:15.098Z,19.87
2019-03-31T20:51:41.551Z,15.35
2019-03-31T20:54:08.324Z,19.15
2019-03-31T20:56:34.925Z,16.73
2019-03-31T20:59:01.638Z,24.20
2019-03-31T21:01:28.096Z,22.95
2019-03-31T21:03:54.752Z,19.57
2019-03-31T21:06:21.416Z,19.52
2019-03-31T21:08:48.169Z,21.95
2019-03-31T21:11:14.838Z,25.00
